Time;durP1;ratioP1;P1;durP2;ratioP2;P2;SDS_P1;SDS_P2;PMS_P1;PMS_P2;Temp;Humidity;BMP_temperature;BMP_pressure;BME280_temperature;BME280_humidity;BME280_pressure;Samples;Min_cycle;Max_cycle;Signal;HPM_P1;HPM_P2
2021/09/16 00:00:59;;;;;;;19.17;15.43;;;;;;;14.11;95.33;96070.91;6169884;23;20021;-91
2021/09/16 00:03:25;;;;;;;23.60;15.93;;;;;;;14.05;95.69;96058.44;6186373;23;20009;-92
2021/09/16 00:05:51;;;;;;;18.75;14.90;;;;;;;14.16;95.92;96075.63;6186105;23;20008;-92
2021/09/16 00:08:17;;;;;;;20.92;16.08;;;;;;;13.95;95.06;96051.66;6186013;23;20048;-92
2021/09/16 00:10:43;;;;;;;22.85;15.48;;;;;;;14.06;95.92;96065.38;6186076;23;20016;-92
2021/09/16 00:13:08;;;;;;;26.27;15.77;;;;;;;13.94;95.89;96056.38;6211122;23;20020;-92
2021/09/16 00:15:34;;;;;;;25.10;15.77;;;;;;;13.93;96.16;96051.41;6186312;23;20317;-92
2021/09/16 00:18:00;;;;;;;20.10;15.15;;;;;;;13.92;95.56;96058.13;6185955;23;20001;-92
2021/09/16 00:20:25;;;;;;;24.00;15.43;;;;;;;13.84;95.96;96061.28;6186118;23;20371;-91
2021/09/16 00:22:51;;;;;;;17.95;15.32;;;;;;;13.86;96.00;96058.84;6185853;23;20005;-93
2021/09/16 00:25:17;;;;;;;21.30;14.80;;;;;;;13.88;96.14;96061.81;6186059;23;20012;-92
2021/09/16 00:27:42;;;;;;;19.58;14.38;;;;;;;13.94;95.30;96055.66;6187686;23;20000;-92
2021/09/16 00:30:09;;;;;;;20.52;14.45;;;;;;;13.97;95.45;96071.81;6185987;23;20140;-92
2021/09/16 00:32:35;;;;;;;17.95;14.77;;;;;;;13.99;94.86;96066.59;6211009;23;20363;-92
2021/09/16 00:35:01;;;;;;;18.33;14.57;;;;;;;13.86;94.91;96056.09;6185960;23;20005;-92
2021/09/16 00:37:27;;;;;;;17.13;14.98;;;;;;;13.87;94.98;96062.31;6186117;23;20036;-92
2021/09/16 00:39:57;;;;;;;19.67;14.88;;;;;;;13.81;95.61;96054.09;6185821;23;20001;-91
2021/09/16 00:42:23;;;;;;;17.60;14.77;;;;;;;13.77;96.21;96056.28;6185795;23;20005;-92
2021/09/16 00:44:49;;;;;;;21.08;14.25;;;;;;;13.77;95.92;96050.06;6187053;23;20009;-92
2021/09/16 00:47:16;;;;;;;17.73;14.80;;;;;;;13.83;95.88;96059.03;6185879;23;20012;-92
2021/09/16 00:49:45;;;;;;;17.52;15.00;;;;;;;13.79;97.12;96061.25;6185686;23;20035;-92
2021/09/16 00:52:12;;;;;;;17.77;15.07;;;;;;;13.87;96.26;96078.69;6185674;23;20051;-91
2021/09/16 00:54:43;;;;;;;22.55;14.27;;;;;;;13.74;96.39;96046.34;6185562;23;20009;-92
2021/09/16 00:57:11;;;;;;;17.90;14.20;;;;;;;13.71;96.16;96046.56;6185851;23;20008;-92
2021/09/16 00:59:37;;;;;;;16.45;14.23;;;;;;;13.68;96.39;96050.25;6210792;23;20087;-92
2021/09/16 01:02:03;;;;;;;18.30;15.20;;;;;;;13.72;97.14;96045.31;6185527;23;20033;-92
2021/09/16 01:04:29;;;;;;;20.42;14.90;;;;;;;13.79;96.56;96047.59;6185808;23;20040;-92
2021/09/16 01:06:56;;;;;;;17.50;14.55;;;;;;;13.85;96.19;96053.88;6185795;23;20071;-92
2021/09/16 01:09:23;;;;;;;21.27;15.93;;;;;;;13.83;96.21;96054.34;6186158;23;20012;-92
2021/09/16 01:11:49;;;;;;;16.55;14.85;;;;;;;13.83;97.43;96069.97;6185642;23;20005;-92
2021/09/16 01:14:24;;;;;;;18.23;15.68;;;;;;;13.62;97.25;96039.31;6185585;23;20031;-92
2021/09/16 01:16:51;;;;;;;91.65;17.65;;;;;;;13.85;98.13;96064.78;6185626;23;20001;-93
2021/09/16 01:19:17;;;;;;;18.25;15.10;;;;;;;13.74;96.97;96051.81;6185271;23;20334;-92
2021/09/16 01:21:43;;;;;;;19.65;15.90;;;;;;;13.66;97.46;96047.28;6185783;23;20336;-92
2021/09/16 01:24:08;;;;;;;18.88;14.85;;;;;;;13.68;97.60;96045.53;6185659;23;20005;-92
2021/09/16 01:26:34;;;;;;;18.42;15.20;;;;;;;13.64;97.76;96042.31;6185603;23;20040;-93
2021/09/16 01:29:00;;;;;;;18.08;16.15;;;;;;;13.70;97.71;96039.63;6185590;23;20063;-93
2021/09/16 01:31:39;;;;;;;19.20;16.70;;;;;;;13.81;98.05;96056.06;6186044;23;20088;-92
2021/09/16 01:34:06;;;;;;;18.02;15.98;;;;;;;13.79;98.22;96063.97;6185834;23;20088;-93
2021/09/16 01:36:32;;;;;;;18.92;15.93;;;;;;;13.75;98.46;96050.56;6185615;23;20005;-92
2021/09/16 01:38:59;;;;;;;24.15;17.10;;;;;;;13.74;98.34;96043.63;6185625;23;20100;-92
2021/09/16 01:41:25;;;;;;;22.95;17.23;;;;;;;13.76;97.91;96048.59;6186706;23;20390;-91
2021/09/16 01:43:51;;;;;;;22.10;17.00;;;;;;;13.67;98.15;96035.13;6188969;23;20029;-93
2021/09/16 01:46:16;;;;;;;21.00;16.60;;;;;;;13.69;97.74;96035.38;6187507;23;20001;-92
2021/09/16 01:48:42;;;;;;;22.92;15.65;;;;;;;13.74;97.74;96034.66;6187629;23;20011;-93
2021/09/16 01:51:07;;;;;;;20.17;15.82;;;;;;;13.80;98.94;96041.69;6187563;23;20011;-92
2021/09/16 01:53:33;;;;;;;22.10;16.63;;;;;;;13.63;98.13;96036.09;6187845;23;20005;-93
2021/09/16 01:55:58;;;;;;;21.33;15.80;;;;;;;13.71;97.98;96054.75;6187359;23;20009;-92
2021/09/16 01:58:24;;;;;;;17.77;15.85;;;;;;;13.67;98.23;96035.13;6187368;23;20088;-92
2021/09/16 02:00:50;;;;;;;18.80;15.60;;;;;;;13.70;97.69;96047.81;6187098;23;20052;-92
2021/09/16 02:03:15;;;;;;;19.88;15.20;;;;;;;13.72;97.70;96048.06;6187432;23;20005;-92
2021/09/16 02:05:41;;;;;;;19.40;16.02;;;;;;;13.70;98.16;96043.09;6187137;23;20514;-92
2021/09/16 02:08:10;;;;;;;20.95;15.65;;;;;;;13.84;98.21;96064.00;6187538;23;20016;-94
2021/09/16 02:10:35;;;;;;;23.60;16.05;;;;;;;13.66;97.91;96047.28;6187251;23;20080;-92
2021/09/16 02:13:01;;;;;;;18.42;15.63;;;;;;;13.53;97.77;96017.66;6187315;23;20143;-93
2021/09/16 02:15:26;;;;;;;21.60;14.93;;;;;;;13.66;98.29;96042.56;6187398;23;20005;-93
2021/09/16 02:17:52;;;;;;;16.30;14.55;;;;;;;13.65;97.38;96032.13;6187127;23;20008;-92
2021/09/16 02:20:18;;;;;;;20.70;15.10;;;;;;;13.60;97.92;96025.41;6187216;23;20492;-92
2021/09/16 02:22:44;;;;;;;18.30;14.80;;;;;;;13.65;97.65;96032.88;6187530;23;20012;-92
2021/09/16 02:25:10;;;;;;;17.77;14.80;;;;;;;13.70;98.30;96032.19;6187131;23;20084;-91
2021/09/16 02:27:35;;;;;;;18.55;15.25;;;;;;;13.63;98.06;96021.69;6187159;23;20346;-92
2021/09/16 02:30:01;;;;;;;21.42;15.90;;;;;;;13.58;97.40;96011.47;6188464;23;20001;-92
2021/09/16 02:32:26;;;;;;;19.38;15.55;;;;;;;13.53;97.75;96015.69;6186905;23;20009;-92
2021/09/16 02:34:52;;;;;;;64.47;18.17;;;;;;;13.53;99.26;96014.91;6186937;23;20013;-92
2021/09/16 02:37:18;;;;;;;20.67;15.52;;;;;;;13.63;98.07;96025.19;6187114;23;20005;-92
2021/09/16 02:39:43;;;;;;;18.50;15.02;;;;;;;13.51;98.03;96015.41;6187011;23;20009;-93
2021/09/16 02:42:09;;;;;;;17.25;14.48;;;;;;;13.65;97.37;96041.06;6187048;23;20315;-93
2021/09/16 02:44:35;;;;;;;18.50;15.52;;;;;;;13.53;97.19;96023.88;6187181;23;20064;-93
2021/09/16 02:47:00;;;;;;;21.00;15.95;;;;;;;13.49;97.71;96017.88;6187213;23;20338;-92
2021/09/16 02:49:26;;;;;;;22.20;15.63;;;;;;;13.49;97.55;96022.59;6186987;23;20001;-92
2021/09/16 02:51:51;;;;;;;17.77;15.32;;;;;;;13.47;97.29;96022.31;6186658;23;20013;-93
2021/09/16 02:54:18;;;;;;;21.45;16.02;;;;;;;13.42;97.87;96015.59;6186776;23;20011;-92
2021/09/16 02:56:44;;;;;;;20.02;16.02;;;;;;;13.45;97.48;96025.53;6188094;23;20424;-92
2021/09/16 02:59:10;;;;;;;18.88;15.38;;;;;;;13.50;97.39;96038.47;6186882;23;20004;-93
2021/09/16 03:01:35;;;;;;;23.60;18.13;;;;;;;13.36;97.88;96012.81;6186715;23;20070;-93
2021/09/16 03:04:01;;;;;;;23.55;17.48;;;;;;;13.26;97.97;96005.28;6186944;23;20005;-93
2021/09/16 03:06:26;;;;;;;19.10;16.42;;;;;;;13.39;97.35;96024.00;6186759;23;20009;-93
2021/09/16 03:08:52;;;;;;;24.80;16.08;;;;;;;13.32;97.55;96011.56;6186702;23;20083;-92
2021/09/16 03:11:17;;;;;;;18.42;16.35;;;;;;;13.28;97.84;96008.28;6186898;23;20029;-93
2021/09/16 03:13:43;;;;;;;22.77;16.27;;;;;;;13.26;97.51;96008.78;6212010;23;20532;-93
2021/09/16 03:16:09;;;;;;;23.92;17.50;;;;;;;13.24;98.15;96019.41;6186626;23;20087;-93
2021/09/16 03:18:35;;;;;;;21.38;16.70;;;;;;;13.32;98.05;96019.75;6188036;23;20001;-92
2021/09/16 03:21:00;;;;;;;20.33;16.23;;;;;;;13.25;97.96;96006.53;6187954;23;20001;-93
2021/09/16 03:23:26;;;;;;;22.33;16.65;;;;;;;13.31;98.49;96021.69;6186596;23;20012;-93
2021/09/16 03:25:52;;;;;;;21.02;15.65;;;;;;;13.29;97.85;96020.69;6186621;23;20089;-93
2021/09/16 03:28:17;;;;;;;25.13;16.42;;;;;;;13.20;97.16;96016.13;6211878;23;20448;-93
2021/09/16 03:30:43;;;;;;;24.50;16.27;;;;;;;13.18;97.60;96007.69;6186670;23;20020;-93
2021/09/16 03:33:09;;;;;;;21.48;16.40;;;;;;;13.29;97.17;96035.06;6186325;23;20099;-93
2021/09/16 03:35:35;;;;;;;19.67;16.25;;;;;;;13.14;97.81;96011.84;6186367;23;20079;-92
2021/09/16 03:38:01;;;;;;;22.17;16.63;;;;;;;13.20;98.34;96016.13;6186431;23;20009;-93
2021/09/16 03:40:26;;;;;;;21.83;17.00;;;;;;;13.28;98.22;96008.28;6186466;23;20012;-93
2021/09/16 03:42:51;;;;;;;20.80;16.58;;;;;;;13.28;98.00;96011.75;6186378;23;20452;-93
2021/09/16 03:45:18;;;;;;;18.85;15.80;;;;;;;13.24;97.86;96016.69;6186350;23;20027;-92
2021/09/16 03:47:44;;;;;;;20.65;15.57;;;;;;;13.26;97.83;96011.50;6186310;23;20012;-92
2021/09/16 03:50:11;;;;;;;20.02;15.90;;;;;;;13.33;97.13;96013.06;6186454;23;20001;-91
2021/09/16 03:52:37;;;;;;;18.88;15.75;;;;;;;13.29;96.57;96021.44;6186572;23;20063;-93
2021/09/16 03:55:03;;;;;;;18.05;15.40;;;;;;;13.14;96.78;95996.25;6186033;23;20009;-93
2021/09/16 03:57:29;;;;;;;21.77;15.93;;;;;;;13.17;97.40;96006.19;6186260;23;20013;-93
2021/09/16 03:59:54;;;;;;;20.60;15.48;;;;;;;13.17;96.98;96000.75;6185998;23;20440;-93
2021/09/16 04:02:20;;;;;;;25.65;16.42;;;;;;;13.29;98.10;96026.91;6161384;23;20024;-93
2021/09/16 04:04:45;;;;;;;43.55;17.20;;;;;;;13.23;98.12;96015.19;6161046;23;20426;-93
2021/09/16 04:07:11;;;;;;;19.63;16.13;;;;;;;13.07;97.69;96000.16;6161427;23;20016;-93
2021/09/16 04:09:36;;;;;;;20.30;16.20;;;;;;;13.10;97.19;96006.59;6187760;23;20001;-93
2021/09/16 04:12:02;;;;;;;21.50;16.80;;;;;;;13.08;97.16;96014.53;6161051;23;20434;-93
2021/09/16 04:14:28;;;;;;;21.52;16.52;;;;;;;13.03;97.92;96015.22;6161127;23;20005;-94
2021/09/16 04:16:54;;;;;;;20.85;16.17;;;;;;;13.09;98.31;96013.31;6161137;23;20008;-93
2021/09/16 04:19:19;;;;;;;20.08;16.38;;;;;;;12.95;97.11;96001.28;6161269;23;20011;-95
2021/09/16 04:21:45;;;;;;;21.85;15.88;;;;;;;13.00;98.08;96005.31;6161028;23;19997;-93
2021/09/16 04:24:13;;;;;;;18.50;16.30;;;;;;;12.99;98.41;95993.63;6162820;23;20005;-95
2021/09/16 04:26:44;;;;;;;19.85;16.02;;;;;;;12.97;98.65;95993.38;6161555;23;20004;-94
2021/09/16 04:29:10;;;;;;;39.38;17.30;;;;;;;13.03;98.61;95998.88;6161064;23;20013;-94
2021/09/16 04:31:36;;;;;;;25.70;17.25;;;;;;;13.04;98.38;95998.38;6161181;23;20001;-93
2021/09/16 04:34:02;;;;;;;22.33;15.77;;;;;;;13.12;98.42;96015.06;6161185;23;20005;-95
2021/09/16 04:36:27;;;;;;;24.15;16.85;;;;;;;12.90;98.12;95979.44;6161168;23;20001;-94
2021/09/16 04:38:53;;;;;;;23.85;17.08;;;;;;;13.20;98.87;96024.31;6160802;23;20071;-93
2021/09/16 04:41:19;;;;;;;26.42;16.67;;;;;;;13.11;98.46;96016.31;6185469;23;20031;-93
2021/09/16 04:43:44;;;;;;;22.67;17.30;;;;;;;12.98;98.44;96002.28;6160769;23;20422;-94
2021/09/16 04:46:10;;;;;;;22.85;16.70;;;;;;;13.07;98.64;96004.88;6161019;23;20491;-95
2021/09/16 04:48:36;;;;;;;25.65;16.70;;;;;;;13.05;98.38;96002.63;6161241;23;20067;-94
2021/09/16 04:51:01;;;;;;;22.42;16.52;;;;;;;13.17;98.17;96024.53;6161076;23;20448;-96
2021/09/16 04:53:27;;;;;;;25.42;16.40;;;;;;;13.25;98.14;96039.25;6161529;23;20098;-96
2021/09/16 04:55:52;;;;;;;22.60;17.73;;;;;;;13.12;97.92;96012.34;6161990;23;20016;-95
2021/09/16 04:58:18;;;;;;;24.83;17.25;;;;;;;13.16;97.80;96021.06;6162410;23;20016;-96
2021/09/16 05:00:44;;;;;;;26.77;17.75;;;;;;;13.14;98.35;96012.59;6167192;23;20067;-95
2021/09/16 05:03:09;;;;;;;21.55;15.73;;;;;;;13.15;98.42;96011.38;6187512;23;20456;-96
2021/09/16 05:05:35;;;;;;;25.30;17.88;;;;;;;13.13;99.10;96011.09;6186957;23;20001;-95
2021/09/16 05:08:01;;;;;;;22.85;16.88;;;;;;;12.97;98.61;95984.44;6185905;23;20012;-95
2021/09/16 05:10:26;;;;;;;20.30;17.38;;;;;;;13.12;98.71;96004.16;6185591;23;20036;-95
2021/09/16 05:12:52;;;;;;;20.73;18.02;;;;;;;13.00;98.91;95988.94;6185733;23;20001;-95
2021/09/16 05:15:18;;;;;;;26.13;17.20;;;;;;;13.09;98.61;95991.50;6185761;23;20009;-94
2021/09/16 05:17:43;;;;;;;23.73;17.40;;;;;;;13.25;98.61;96001.81;6186347;23;20009;-95
2021/09/16 05:20:10;;;;;;;23.73;17.25;;;;;;;13.48;98.10;96030.03;6187576;23;20009;-96
2021/09/16 05:22:35;;;;;;;23.67;16.60;;;;;;;13.23;98.05;95996.09;6186285;23;20001;-96
2021/09/16 05:25:01;;;;;;;24.45;17.10;;;;;;;13.24;99.02;96002.31;6186341;23;20037;-96
2021/09/16 05:27:26;;;;;;;23.23;17.35;;;;;;;13.19;99.22;96000.25;6185930;23;20032;-94
2021/09/16 05:29:52;;;;;;;22.75;17.58;;;;;;;13.27;99.27;96007.56;6185884;23;20044;-95
2021/09/16 05:32:18;;;;;;;19.23;17.17;;;;;;;13.37;98.61;96016.31;6185584;23;20013;-96
2021/09/16 05:34:44;;;;;;;26.15;16.55;;;;;;;13.33;98.95;96000.16;6185560;23;20005;-95
2021/09/16 05:37:09;;;;;;;18.80;15.60;;;;;;;13.66;98.61;96028.16;6185490;23;20039;-95
2021/09/16 05:39:35;;;;;;;26.85;20.30;;;;;;;13.47;97.70;95990.31;6185644;23;20419;-96
2021/09/16 05:42:01;;;;;;;30.23;24.55;;;;;;;13.52;98.82;96005.25;6185765;23;20028;-95
2021/09/16 05:44:26;;;;;;;30.05;22.52;;;;;;;13.60;97.69;96004.31;6185469;23;20433;-95
2021/09/16 05:46:52;;;;;;;29.50;22.27;;;;;;;13.57;98.38;95994.38;6185672;23;20016;-95
2021/09/16 05:49:17;;;;;;;28.92;22.10;;;;;;;13.84;97.99;96012.16;6185324;23;20005;-94
2021/09/16 05:51:43;;;;;;;32.40;21.05;;;;;;;13.92;96.89;96003.53;6185369;23;20009;-94
2021/09/16 05:54:08;;;;;;;27.98;21.33;;;;;;;14.02;96.30;96010.28;6185439;23;20087;-94
2021/09/16 05:56:34;;;;;;;40.08;22.42;;;;;;;14.02;97.01;95994.66;6185530;23;20446;-94
2021/09/16 05:59:00;;;;;;;27.27;19.90;;;;;;;14.09;95.67;95986.00;6185385;23;20063;-95
2021/09/16 06:01:25;;;;;;;29.25;19.60;;;;;;;14.35;95.76;96021.38;6184616;23;20707;-90
2021/09/16 06:03:51;;;;;;;28.17;18.67;;;;;;;14.41;95.54;96018.66;6185445;23;20009;-95
2021/09/16 06:06:17;;;;;;;29.48;19.27;;;;;;;14.49;95.71;96018.94;6185428;23;20005;-94
2021/09/16 06:08:43;;;;;;;20.80;18.38;;;;;;;14.55;95.35;96017.00;6185276;23;20043;-94
2021/09/16 06:11:09;;;;;;;23.55;18.13;;;;;;;14.71;94.85;96026.50;6185490;23;20005;-94
2021/09/16 06:13:35;;;;;;;25.38;18.00;;;;;;;14.59;94.52;96001.09;6185468;23;20373;-93
2021/09/16 06:16:00;;;;;;;22.13;17.70;;;;;;;14.71;94.34;96015.56;6185247;23;20004;-94
2021/09/16 06:18:26;;;;;;;24.35;17.80;;;;;;;14.58;94.18;95988.69;6185154;23;20311;-93
2021/09/16 06:20:52;;;;;;;26.33;18.23;;;;;;;14.79;94.62;96008.34;6185220;23;20039;-93
2021/09/16 06:23:17;;;;;;;23.88;17.67;;;;;;;14.79;93.72;96002.91;6185342;23;20005;-94
2021/09/16 06:25:43;;;;;;;24.90;17.98;;;;;;;14.86;94.77;96010.59;6185228;23;20020;-94
2021/09/16 06:28:09;;;;;;;27.67;18.67;;;;;;;14.86;94.45;95996.94;6186979;23;20016;-94
2021/09/16 06:30:34;;;;;;;30.02;18.67;;;;;;;14.99;93.90;96004.69;6186895;23;20012;-93
2021/09/16 06:33:00;;;;;;;29.35;17.83;;;;;;;15.13;93.54;96022.84;6187001;23;20005;-94
2021/09/16 06:35:26;;;;;;;36.80;18.65;;;;;;;15.07;93.78;96011.88;6186972;23;20035;-94
2021/09/16 06:37:51;;;;;;;31.90;18.98;;;;;;;15.09;94.18;96009.41;6186875;23;20009;-94
2021/09/16 06:40:19;;;;;;;32.60;18.02;;;;;;;15.11;92.97;96008.91;6187767;23;20427;-95
2021/09/16 06:42:45;;;;;;;33.72;18.42;;;;;;;15.28;92.93;96028.81;6186918;23;20080;-94
2021/09/16 06:45:11;;;;;;;26.33;17.58;;;;;;;15.20;93.02;96017.63;6187032;23;20032;-93
2021/09/16 06:47:37;;;;;;;23.45;17.08;;;;;;;15.22;92.36;96003.44;6187080;23;20452;-95
2021/09/16 06:50:03;;;;;;;33.42;18.45;;;;;;;15.35;94.07;96019.38;6186977;23;20004;-95
2021/09/16 06:52:29;;;;;;;23.63;17.02;;;;;;;15.34;92.92;96004.19;6186850;23;20016;-94
2021/09/16 06:54:57;;;;;;;28.90;17.45;;;;;;;15.39;92.74;96006.19;6187054;23;20005;-94
2021/09/16 06:57:23;;;;;;;27.00;17.92;;;;;;;15.60;93.47;96023.09;6186862;23;20067;-94
2021/09/16 06:59:49;;;;;;;27.75;18.75;;;;;;;15.54;93.87;95998.47;6186933;23;20009;-94
2021/09/16 07:02:14;;;;;;;28.33;17.85;;;;;;;15.60;93.12;96017.63;6186580;23;20071;-93
2021/09/16 07:04:40;;;;;;;28.48;18.67;;;;;;;15.67;91.72;96008.94;6186838;23;20020;-93
2021/09/16 07:07:06;;;;;;;28.42;18.85;;;;;;;15.67;92.13;96015.16;6186762;23;20437;-94
2021/09/16 07:09:33;;;;;;;25.13;17.05;;;;;;;15.70;91.11;96005.94;6186757;23;20548;-94
2021/09/16 07:11:59;;;;;;;28.85;19.65;;;;;;;15.67;91.92;95998.75;6186574;23;20456;-93
2021/09/16 07:14:26;;;;;;;31.60;19.17;;;;;;;15.74;92.32;96002.22;6186826;23;20005;-92
2021/09/16 07:16:53;;;;;;;37.33;19.75;;;;;;;15.80;91.82;96011.91;6186866;23;20088;-92
2021/09/16 07:19:19;;;;;;;32.17;19.58;;;;;;;15.92;91.71;96009.88;6186606;23;19997;-94
2021/09/16 07:21:44;;;;;;;30.15;17.95;;;;;;;15.84;91.11;95989.75;6186278;23;20087;-93
2021/09/16 07:24:10;;;;;;;28.60;19.63;;;;;;;15.98;91.17;96002.44;6186623;23;20454;-94
2021/09/16 07:26:36;;;;;;;30.35;18.85;;;;;;;16.00;90.92;95996.44;6186634;23;20075;-93
2021/09/16 07:29:06;;;;;;;27.17;17.20;;;;;;;16.10;90.54;96009.38;6186510;23;20005;-95
2021/09/16 07:31:32;;;;;;;26.48;17.08;;;;;;;16.15;90.27;96008.59;6186591;23;20068;-94
2021/09/16 07:33:59;;;;;;;22.42;16.50;;;;;;;16.27;90.65;96014.78;6186336;23;20044;-95
2021/09/16 07:36:25;;;;;;;24.67;16.70;;;;;;;16.25;90.38;96003.59;6186455;23;20078;-95
2021/09/16 07:38:50;;;;;;;20.63;15.23;;;;;;;16.31;89.98;96003.56;6185937;23;20429;-94
2021/09/16 07:41:17;;;;;;;21.48;16.70;;;;;;;16.37;89.65;96007.78;6186341;23;20011;-94
2021/09/16 07:43:43;;;;;;;18.58;15.57;;;;;;;16.28;89.35;95977.16;6186397;23;20012;-93
2021/09/16 07:46:08;;;;;;;17.80;15.70;;;;;;;16.46;89.68;96001.28;6186433;23;20012;-95
2021/09/16 07:51:56;;;;;;;17.15;13.63;;;;;;;16.66;89.58;96005.66;6187646;23;20020;-95
2021/09/16 07:54:22;;;;;;;22.00;15.00;;;;;;;16.64;88.25;95991.72;6186106;23;20075;-95
2021/09/16 07:56:47;;;;;;;19.33;15.23;;;;;;;16.65;86.94;95985.72;6186499;23;20524;-96
2021/09/16 07:59:13;;;;;;;20.27;14.65;;;;;;;16.83;87.93;96000.88;6186316;23;20075;-95
2021/09/16 08:01:38;;;;;;;21.52;14.65;;;;;;;16.65;85.97;95990.47;6169598;23;20016;-94
2021/09/16 08:04:05;;;;;;;18.55;14.73;;;;;;;16.92;87.58;96022.47;6186086;23;20040;-95
2021/09/16 08:06:30;;;;;;;16.80;14.38;;;;;;;16.87;86.95;96004.06;6161336;23;20043;-94
2021/09/16 09:07:44;;;;;;;11.13;9.63;;;;;;;18.58;77.09;96009.00;6247021;23;20356;-93
2021/09/16 09:10:30;;;;;;;16.30;11.70;;;;;;;18.78;100.00;95981.03;6276270;22;20019;-94
2021/09/16 09:12:56;;;;;;;15.13;11.15;;;;;;;18.98;100.00;88938.44;6250964;22;20018;-94
2021/09/16 09:15:21;;;;;;;15.48;11.57;;;;;;;19.07;76.42;95997.91;6276509;22;20027;-94
2021/09/16 09:18:02;;;;;;;13.57;11.60;;;;;;;19.01;74.49;95984.19;6276425;22;20008;-94
2021/09/16 09:20:27;;;;;;;13.18;11.50;;;;;;;19.04;76.54;95971.41;6276489;22;20090;-94
2021/09/16 09:22:53;;;;;;;14.20;11.32;;;;;;;19.04;76.54;95971.41;6276671;22;20095;-94
2021/09/16 09:25:18;;;;;;;19.17;12.05;;;;;;;19.20;75.13;95972.44;6276681;22;20031;-94
2021/09/16 09:27:49;;;;;;;16.23;11.85;;;;;;;19.36;100.00;68426.72;6276324;22;20030;-94
2021/09/16 09:30:23;;;;;;;17.27;12.50;;;;;;;19.25;74.17;95955.09;6276337;22;20035;-95
2021/09/16 09:32:49;;;;;;;16.15;12.30;;;;;;;19.35;74.51;95959.66;6276359;22;20011;-94
2021/09/16 09:35:40;;;;;;;17.30;12.68;;;;;;;19.49;73.61;95968.69;6276241;22;20493;-94
2021/09/16 09:38:12;;;;;;;14.27;11.73;;;;;;;19.53;73.56;95968.38;6275947;22;20014;-94
2021/09/16 09:40:39;;;;;;;17.85;11.90;;;;;;;19.47;73.19;95943.69;6276553;22;20010;-94
2021/09/16 09:43:26;;;;;;;17.67;12.15;;;;;;;19.63;74.36;95961.22;6276310;22;19999;-94
2021/09/16 09:46:03;;;;;;;14.63;12.02;;;;;;;19.69;75.01;95945.34;6276103;22;20362;-94
2021/09/16 09:48:31;;;;;;;15.35;12.20;;;;;;;19.55;71.56;95936.31;6275869;22;20015;-94
2021/09/16 09:50:56;;;;;;;12.32;10.80;;;;;;;19.66;74.14;95943.66;6275961;22;20011;-94
2021/09/16 09:53:22;;;;;;;19.55;11.10;;;;;;;19.74;71.99;95936.25;6275474;22;20015;-94
2021/09/16 09:55:52;;;;;;;12.75;10.50;;;;;;;19.87;72.21;95933.50;6275961;22;20004;-94
2021/09/16 09:58:31;;;;;;;13.48;11.32;;;;;;;20.04;72.67;95944.19;6275956;22;20000;-94
2021/09/16 10:00:56;;;;;;;13.18;10.93;;;;;;;20.00;72.37;95938.25;6275355;22;19999;-94
2021/09/16 10:03:28;;;;;;;12.70;9.48;;;;;;;20.05;72.86;95931.16;6277652;22;20004;-94
2021/09/16 10:06:08;;;;;;;12.52;10.73;;;;;;;20.18;69.53;95938.66;6278014;22;20050;-94
2021/09/16 10:08:34;;;;;;;14.80;10.43;;;;;;;20.09;69.50;95918.53;6278866;22;20061;-94
2021/09/16 10:10:59;;;;;;;14.38;10.55;;;;;;;20.08;70.27;95917.06;6277298;22;20012;-94
2021/09/16 10:13:25;;;;;;;14.55;9.80;;;;;;;20.17;70.11;95910.38;6277585;22;20003;-94
2021/09/16 10:15:52;;;;;;;11.02;9.57;;;;;;;20.17;69.26;95915.88;6278098;22;20086;-94
2021/09/16 10:18:18;;;;;;;10.13;9.02;;;;;;;20.23;69.67;95907.50;6278408;22;20081;-95
2021/09/16 10:20:45;;;;;;;16.27;9.88;;;;;;;20.26;72.05;95906.44;6278317;22;20000;-94
2021/09/16 10:23:11;;;;;;;13.95;11.18;;;;;;;20.27;71.04;95903.13;6279595;22;19999;-94
2021/09/16 10:25:46;;;;;;;10.82;9.68;;;;;;;20.44;72.04;95905.53;6278643;22;20431;-94
2021/09/16 10:28:12;;;;;;;12.23;10.57;;;;;;;20.53;71.16;95907.13;6277941;22;20008;-94
2021/09/16 10:30:40;;;;;;;15.38;10.50;;;;;;;20.45;70.26;95878.69;6278043;22;20003;-94
2021/09/16 10:33:13;;;;;;;12.43;10.00;;;;;;;20.64;67.60;95906.88;6277824;22;20008;-94
2021/09/16 10:35:43;;;;;;;15.23;9.93;;;;;;;20.64;67.98;95888.31;6277882;22;20003;-94
2021/09/16 10:38:20;;;;;;;9.48;8.10;;;;;;;20.93;68.79;95902.19;6277683;22;20003;-92
2021/09/16 10:40:46;;;;;;;9.13;7.82;;;;;;;20.97;65.93;95907.41;6276808;22;20000;-93
2021/09/16 10:43:21;;;;;;;8.95;8.02;;;;;;;21.00;64.30;95892.53;6277134;22;20006;-92
2021/09/16 10:45:47;;;;;;;9.93;7.25;;;;;;;21.32;67.22;95893.03;6277657;22;20004;-93
2021/09/16 10:48:13;;;;;;;7.85;6.63;;;;;;;21.58;66.91;95894.13;6276435;22;20487;-93
2021/09/16 10:50:45;;;;;;;10.43;8.38;;;;;;;21.71;66.84;95894.00;6278525;22;20058;-94
2021/09/16 10:53:29;;;;;;;13.07;7.93;;;;;;;21.93;66.62;95881.59;6285004;22;20008;-95
2021/09/16 10:55:54;;;;;;;11.98;8.15;;;;;;;22.09;65.80;95874.88;6286053;22;20078;-95
2021/09/16 10:58:27;;;;;;;8.73;7.82;;;;;;;22.17;65.96;95861.84;6278171;22;20042;-95
2021/09/16 11:00:53;;;;;;;9.20;7.60;;;;;;;22.14;66.50;95862.19;6277867;22;20004;-94
2021/09/16 11:03:19;;;;;;;9.77;7.88;;;;;;;22.23;66.35;95892.84;6277783;22;20000;-94
2021/09/16 11:05:48;;;;;;;11.13;8.52;;;;;;;22.24;64.98;95877.00;6277778;22;20007;-94
2021/09/16 11:08:15;;;;;;;10.20;7.50;;;;;;;22.17;64.43;95859.09;6277728;22;20447;-94
2021/09/16 11:10:40;;;;;;;9.18;7.65;;;;;;;22.41;65.92;95882.75;6277788;22;20007;-94
2021/09/16 11:13:29;;;;;;;9.35;7.50;;;;;;;22.58;62.31;95881.50;6277648;22;20431;-95
2021/09/16 11:15:55;;;;;;;11.25;8.10;;;;;;;22.70;64.78;95855.00;6277598;22;20003;-94
2021/09/16 11:18:22;;;;;;;12.77;7.65;;;;;;;22.71;63.34;95834.34;6278157;22;19999;-94
2021/09/16 11:20:54;;;;;;;12.85;7.95;;;;;;;22.90;61.71;95839.53;6277944;22;20003;-95
2021/09/16 11:23:20;;;;;;;10.35;9.02;;;;;;;22.90;61.01;95831.97;6277657;22;20376;-95
2021/09/16 11:25:48;;;;;;;9.77;8.45;;;;;;;23.01;59.60;95830.88;6277622;22;19999;-95
2021/09/16 11:28:14;;;;;;;11.77;8.45;;;;;;;23.26;60.22;95833.81;6277666;22;20007;-96
2021/09/16 11:30:42;;;;;;;11.80;8.35;;;;;;;23.29;58.87;95818.13;6282127;22;20037;-95
2021/09/16 11:33:11;;;;;;;12.35;7.80;;;;;;;23.40;60.41;95828.81;6277275;22;20007;-95
2021/09/16 11:35:38;;;;;;;11.18;8.20;;;;;;;23.34;62.02;95836.59;6281451;22;20146;-95
2021/09/16 11:38:04;;;;;;;11.73;8.00;;;;;;;23.20;62.74;95836.03;6277368;22;20316;-95
2021/09/16 11:40:34;;;;;;;9.82;8.10;;;;;;;23.15;60.91;95832.16;6277766;22;20014;-95
2021/09/16 11:43:03;;;;;;;11.02;8.40;;;;;;;23.09;63.20;95820.53;6277434;22;19999;-95
2021/09/16 11:45:39;;;;;;;11.57;8.00;;;;;;;23.11;61.88;95820.72;6279515;22;20432;-95
2021/09/16 11:48:05;;;;;;;10.85;7.97;;;;;;;23.29;61.33;95831.97;6277322;22;20004;-95
2021/09/16 11:50:35;;;;;;;9.60;7.55;;;;;;;23.30;62.58;95834.19;6277259;22;20491;-95
2021/09/16 11:53:01;;;;;;;;;;;;;;;23.22;60.26;95827.91;6277690;22;20015;-94
2021/09/16 11:55:28;;;;;;;11.70;8.18;;;;;;;23.02;62.02;95812.25;6277387;22;19903;-94
2021/09/16 11:58:00;;;;;;;8.48;7.47;;;;;;;22.98;61.68;95823.69;6276562;22;19999;-93
2021/09/16 12:00:32;;;;;;;10.00;8.05;;;;;;;22.89;63.42;95819.41;6276898;22;20027;-95
2021/09/16 12:02:59;;;;;;;13.10;8.00;;;;;;;22.94;61.57;95820.53;6280455;22;20069;-95
2021/09/16 12:05:30;;;;;;;9.05;7.90;;;;;;;23.02;56.79;95826.81;6279444;22;20010;-94
2021/09/16 12:07:56;;;;;;;9.02;7.50;;;;;;;23.17;56.94;95810.22;6276470;22;20039;-94
2021/09/16 12:10:22;;;;;;;9.98;6.75;;;;;;;23.30;56.68;95803.72;6276955;22;20466;-94
2021/09/16 12:12:48;;;;;;;9.35;6.90;;;;;;;23.49;56.21;95817.19;6278956;22;20004;-96
2021/09/16 12:15:21;;;;;;;9.27;6.40;;;;;;;23.27;57.01;95799.28;6279647;22;20005;-94
2021/09/16 12:17:46;;;;;;;9.38;7.20;;;;;;;23.17;59.10;95801.91;6276768;22;20007;-95
2021/09/16 12:20:37;;;;;;;8.18;6.82;;;;;;;23.21;58.20;95820.91;6276663;22;20074;-94